sensor_id;sensor_type;location;lat;lon;timestamp;P1;durP1;ratioP1;P2;durP2;ratioP2
8652;SDS011;4364;52.426;9.424;2023-06-04T00:02:14;15.60;;;5.07;;
8652;SDS011;4364;52.426;9.424;2023-06-04T00:04:40;10.83;;;4.23;;
8652;SDS011;4364;52.426;9.424;2023-06-04T00:07:07;8.63;;;4.37;;
8652;SDS011;4364;52.426;9.424;2023-06-04T00:09:34;6.73;;;3.27;;
8652;SDS011;4364;52.426;9.424;2023-06-04T00:12:01;10.60;;;3.50;;
8652;SDS011;4364;52.426;9.424;2023-06-04T00:14:28;6.27;;;3.13;;
8652;SDS011;4364;52.426;9.424;2023-06-04T00:16:54;6.70;;;3.40;;
8652;SDS011;4364;52.426;9.424;2023-06-04T00:19:21;6.07;;;3.07;;
8652;SDS011;4364;52.426;9.424;2023-06-04T00:21:48;8.90;;;3.60;;
8652;SDS011;4364;52.426;9.424;2023-06-04T00:24:15;8.53;;;3.30;;
8652;SDS011;4364;52.426;9.424;2023-06-04T00:26:44;9.27;;;3.10;;
8652;SDS011;4364;52.426;9.424;2023-06-04T00:29:21;14.33;;;3.50;;
8652;SDS011;4364;52.426;9.424;2023-06-04T00:31:47;9.07;;;3.50;;
8652;SDS011;4364;52.426;9.424;2023-06-04T00:34:14;9.03;;;3.07;;
8652;SDS011;4364;52.426;9.424;2023-06-04T00:36:40;5.07;;;2.77;;
8652;SDS011;4364;52.426;9.424;2023-06-04T00:39:07;3.63;;;2.60;;
8652;SDS011;4364;52.426;9.424;2023-06-04T00:41:34;6.10;;;2.67;;
8652;SDS011;4364;52.426;9.424;2023-06-04T00:44:00;4.40;;;2.67;;
8652;SDS011;4364;52.426;9.424;2023-06-04T00:46:27;4.83;;;2.20;;
8652;SDS011;4364;52.426;9.424;2023-06-04T00:48:55;3.00;;;2.10;;
8652;SDS011;4364;52.426;9.424;2023-06-04T00:51:22;4.07;;;2.30;;
8652;SDS011;4364;52.426;9.424;2023-06-04T00:53:50;2.30;;;2.10;;
8652;SDS011;4364;52.426;9.424;2023-06-04T00:56:17;3.70;;;2.10;;
8652;SDS011;4364;52.426;9.424;2023-06-04T00:58:44;2.90;;;2.20;;
8652;SDS011;4364;52.426;9.424;2023-06-04T01:01:15;3.17;;;2.10;;
8652;SDS011;4364;52.426;9.424;2023-06-04T01:03:49;4.17;;;1.93;;
8652;SDS011;4364;52.426;9.424;2023-06-04T01:06:21;3.17;;;2.10;;
8652;SDS011;4364;52.426;9.424;2023-06-04T01:08:55;3.80;;;2.20;;
8652;SDS011;4364;52.426;9.424;2023-06-04T01:11:34;5.10;;;2.37;;
8652;SDS011;4364;52.426;9.424;2023-06-04T01:14:02;3.97;;;2.33;;
8652;SDS011;4364;52.426;9.424;2023-06-04T01:16:35;3.33;;;2.20;;
8652;SDS011;4364;52.426;9.424;2023-06-04T01:19:10;4.10;;;2.20;;
8652;SDS011;4364;52.426;9.424;2023-06-04T01:21:49;3.67;;;2.33;;
8652;SDS011;4364;52.426;9.424;2023-06-04T01:24:21;4.23;;;2.27;;
8652;SDS011;4364;52.426;9.424;2023-06-04T01:26:48;2.23;;;1.93;;
8652;SDS011;4364;52.426;9.424;2023-06-04T01:29:17;3.77;;;2.33;;
8652;SDS011;4364;52.426;9.424;2023-06-04T01:31:44;2.97;;;2.17;;
8652;SDS011;4364;52.426;9.424;2023-06-04T01:34:11;2.30;;;1.97;;
8652;SDS011;4364;52.426;9.424;2023-06-04T01:36:37;3.67;;;2.20;;
8652;SDS011;4364;52.426;9.424;2023-06-04T01:39:04;2.80;;;2.13;;
8652;SDS011;4364;52.426;9.424;2023-06-04T01:41:30;2.67;;;2.10;;
8652;SDS011;4364;52.426;9.424;2023-06-04T01:43:57;3.13;;;2.20;;
8652;SDS011;4364;52.426;9.424;2023-06-04T01:46:24;3.23;;;2.00;;
8652;SDS011;4364;52.426;9.424;2023-06-04T01:48:50;3.73;;;1.93;;
8652;SDS011;4364;52.426;9.424;2023-06-04T01:51:17;2.60;;;1.97;;
8652;SDS011;4364;52.426;9.424;2023-06-04T01:53:43;2.53;;;1.90;;
8652;SDS011;4364;52.426;9.424;2023-06-04T01:56:10;4.03;;;2.00;;
8652;SDS011;4364;52.426;9.424;2023-06-04T01:58:37;4.27;;;1.83;;
8652;SDS011;4364;52.426;9.424;2023-06-04T02:01:04;2.73;;;2.10;;
8652;SDS011;4364;52.426;9.424;2023-06-04T02:03:32;2.27;;;1.80;;
8652;SDS011;4364;52.426;9.424;2023-06-04T02:06:04;3.07;;;2.07;;
8652;SDS011;4364;52.426;9.424;2023-06-04T02:08:34;3.20;;;2.13;;
8652;SDS011;4364;52.426;9.424;2023-06-04T02:11:01;4.47;;;2.50;;
8652;SDS011;4364;52.426;9.424;2023-06-04T02:13:28;2.30;;;2.10;;
8652;SDS011;4364;52.426;9.424;2023-06-04T02:15:55;3.77;;;2.20;;
8652;SDS011;4364;52.426;9.424;2023-06-04T02:18:22;2.20;;;1.90;;
8652;SDS011;4364;52.426;9.424;2023-06-04T02:20:49;3.63;;;2.03;;
8652;SDS011;4364;52.426;9.424;2023-06-04T02:23:17;2.80;;;2.30;;
8652;SDS011;4364;52.426;9.424;2023-06-04T02:25:45;2.57;;;2.10;;
8652;SDS011;4364;52.426;9.424;2023-06-04T02:28:12;3.50;;;2.13;;
8652;SDS011;4364;52.426;9.424;2023-06-04T02:30:39;2.50;;;1.97;;
8652;SDS011;4364;52.426;9.424;2023-06-04T02:33:06;4.80;;;2.10;;
8652;SDS011;4364;52.426;9.424;2023-06-04T02:35:32;2.67;;;2.10;;
8652;SDS011;4364;52.426;9.424;2023-06-04T02:37:59;2.00;;;1.80;;
8652;SDS011;4364;52.426;9.424;2023-06-04T02:40:26;2.40;;;1.83;;
8652;SDS011;4364;52.426;9.424;2023-06-04T02:42:53;4.20;;;1.93;;
8652;SDS011;4364;52.426;9.424;2023-06-04T02:45:21;2.40;;;2.10;;
8652;SDS011;4364;52.426;9.424;2023-06-04T02:47:49;1.93;;;1.70;;
8652;SDS011;4364;52.426;9.424;2023-06-04T02:50:16;2.27;;;1.87;;
8652;SDS011;4364;52.426;9.424;2023-06-04T02:52:43;3.40;;;2.20;;
8652;SDS011;4364;52.426;9.424;2023-06-04T02:55:10;2.80;;;1.90;;
8652;SDS011;4364;52.426;9.424;2023-06-04T02:57:39;2.87;;;2.00;;
8652;SDS011;4364;52.426;9.424;2023-06-04T03:00:09;2.43;;;1.90;;
8652;SDS011;4364;52.426;9.424;2023-06-04T03:02:41;3.80;;;1.90;;
8652;SDS011;4364;52.426;9.424;2023-06-04T03:05:10;3.47;;;2.10;;
8652;SDS011;4364;52.426;9.424;2023-06-04T03:07:37;2.40;;;1.50;;
8652;SDS011;4364;52.426;9.424;2023-06-04T03:10:04;2.60;;;2.03;;
8652;SDS011;4364;52.426;9.424;2023-06-04T03:12:31;2.10;;;1.77;;
8652;SDS011;4364;52.426;9.424;2023-06-04T03:14:58;3.00;;;2.00;;
8652;SDS011;4364;52.426;9.424;2023-06-04T03:17:25;2.87;;;2.10;;
8652;SDS011;4364;52.426;9.424;2023-06-04T03:19:52;3.53;;;1.93;;
8652;SDS011;4364;52.426;9.424;2023-06-04T03:22:19;2.27;;;1.83;;
8652;SDS011;4364;52.426;9.424;2023-06-04T03:24:47;2.37;;;1.67;;
8652;SDS011;4364;52.426;9.424;2023-06-04T03:27:13;5.13;;;1.93;;
8652;SDS011;4364;52.426;9.424;2023-06-04T03:29:40;3.50;;;1.90;;
8652;SDS011;4364;52.426;9.424;2023-06-04T03:32:09;3.77;;;1.97;;
8652;SDS011;4364;52.426;9.424;2023-06-04T03:34:36;2.57;;;1.97;;
8652;SDS011;4364;52.426;9.424;2023-06-04T03:37:03;2.33;;;1.80;;
8652;SDS011;4364;52.426;9.424;2023-06-04T03:39:31;3.30;;;2.00;;
8652;SDS011;4364;52.426;9.424;2023-06-04T03:41:59;3.00;;;1.93;;
8652;SDS011;4364;52.426;9.424;2023-06-04T03:44:27;3.77;;;2.10;;
8652;SDS011;4364;52.426;9.424;2023-06-04T03:46:53;4.23;;;2.00;;
8652;SDS011;4364;52.426;9.424;2023-06-04T03:49:20;3.27;;;2.10;;
8652;SDS011;4364;52.426;9.424;2023-06-04T03:51:49;4.30;;;2.00;;
8652;SDS011;4364;52.426;9.424;2023-06-04T03:54:15;2.63;;;1.90;;
8652;SDS011;4364;52.426;9.424;2023-06-04T03:56:47;4.30;;;2.00;;
8652;SDS011;4364;52.426;9.424;2023-06-04T03:59:13;3.53;;;2.10;;
8652;SDS011;4364;52.426;9.424;2023-06-04T04:01:41;4.07;;;2.07;;
8652;SDS011;4364;52.426;9.424;2023-06-04T04:04:08;2.87;;;1.90;;
8652;SDS011;4364;52.426;9.424;2023-06-04T04:06:35;2.30;;;1.80;;
8652;SDS011;4364;52.426;9.424;2023-06-04T04:09:03;2.70;;;1.80;;
8652;SDS011;4364;52.426;9.424;2023-06-04T04:11:33;3.00;;;1.80;;
8652;SDS011;4364;52.426;9.424;2023-06-04T04:14:00;2.73;;;1.83;;
8652;SDS011;4364;52.426;9.424;2023-06-04T04:16:27;3.90;;;2.03;;
8652;SDS011;4364;52.426;9.424;2023-06-04T04:18:55;2.63;;;1.93;;
8652;SDS011;4364;52.426;9.424;2023-06-04T04:21:22;3.60;;;2.10;;
8652;SDS011;4364;52.426;9.424;2023-06-04T04:23:49;2.00;;;1.80;;
8652;SDS011;4364;52.426;9.424;2023-06-04T04:26:18;2.23;;;2.00;;
8652;SDS011;4364;52.426;9.424;2023-06-04T04:28:47;3.47;;;1.87;;
8652;SDS011;4364;52.426;9.424;2023-06-04T04:31:14;2.60;;;1.50;;
8652;SDS011;4364;52.426;9.424;2023-06-04T04:33:42;3.27;;;1.97;;
8652;SDS011;4364;52.426;9.424;2023-06-04T04:36:11;2.67;;;1.90;;
8652;SDS011;4364;52.426;9.424;2023-06-04T04:38:45;3.80;;;1.93;;
8652;SDS011;4364;52.426;9.424;2023-06-04T04:41:12;2.50;;;1.70;;
8652;SDS011;4364;52.426;9.424;2023-06-04T04:43:40;3.30;;;2.07;;
8652;SDS011;4364;52.426;9.424;2023-06-04T04:46:20;2.13;;;1.60;;
8652;SDS011;4364;52.426;9.424;2023-06-04T04:48:47;3.07;;;2.00;;
8652;SDS011;4364;52.426;9.424;2023-06-04T04:51:14;3.17;;;1.70;;
8652;SDS011;4364;52.426;9.424;2023-06-04T04:53:40;2.57;;;2.17;;
8652;SDS011;4364;52.426;9.424;2023-06-04T04:56:07;3.90;;;1.73;;
8652;SDS011;4364;52.426;9.424;2023-06-04T04:58:38;2.83;;;2.10;;
8652;SDS011;4364;52.426;9.424;2023-06-04T05:01:05;2.27;;;1.60;;
8652;SDS011;4364;52.426;9.424;2023-06-04T05:03:32;3.37;;;1.90;;
8652;SDS011;4364;52.426;9.424;2023-06-04T05:05:58;3.80;;;2.10;;
8652;SDS011;4364;52.426;9.424;2023-06-04T05:08:25;2.93;;;1.97;;
8652;SDS011;4364;52.426;9.424;2023-06-04T05:10:52;2.80;;;2.20;;
8652;SDS011;4364;52.426;9.424;2023-06-04T05:13:18;2.40;;;1.97;;
8652;SDS011;4364;52.426;9.424;2023-06-04T05:15:52;2.27;;;1.93;;
8652;SDS011;4364;52.426;9.424;2023-06-04T05:18:22;2.93;;;2.07;;
8652;SDS011;4364;52.426;9.424;2023-06-04T05:20:58;3.80;;;2.23;;
8652;SDS011;4364;52.426;9.424;2023-06-04T05:23:29;3.80;;;1.93;;
8652;SDS011;4364;52.426;9.424;2023-06-04T05:25:56;4.43;;;1.60;;
8652;SDS011;4364;52.426;9.424;2023-06-04T05:28:23;2.37;;;1.80;;
8652;SDS011;4364;52.426;9.424;2023-06-04T05:30:51;2.97;;;1.87;;
8652;SDS011;4364;52.426;9.424;2023-06-04T05:33:18;3.77;;;1.97;;
8652;SDS011;4364;52.426;9.424;2023-06-04T05:35:56;2.70;;;1.97;;
8652;SDS011;4364;52.426;9.424;2023-06-04T05:38:26;2.63;;;1.80;;
8652;SDS011;4364;52.426;9.424;2023-06-04T05:40:56;3.23;;;2.10;;
8652;SDS011;4364;52.426;9.424;2023-06-04T05:43:26;2.53;;;1.70;;
8652;SDS011;4364;52.426;9.424;2023-06-04T05:45:53;3.20;;;2.03;;
8652;SDS011;4364;52.426;9.424;2023-06-04T05:48:20;2.30;;;1.73;;
8652;SDS011;4364;52.426;9.424;2023-06-04T05:50:47;1.93;;;1.67;;
8652;SDS011;4364;52.426;9.424;2023-06-04T05:53:14;3.23;;;1.93;;
8652;SDS011;4364;52.426;9.424;2023-06-04T05:55:41;2.80;;;1.80;;
8652;SDS011;4364;52.426;9.424;2023-06-04T05:58:09;2.13;;;1.80;;
8652;SDS011;4364;52.426;9.424;2023-06-04T06:00:36;2.57;;;1.80;;
8652;SDS011;4364;52.426;9.424;2023-06-04T06:03:03;2.50;;;1.87;;
8652;SDS011;4364;52.426;9.424;2023-06-04T06:05:40;2.50;;;1.87;;
8652;SDS011;4364;52.426;9.424;2023-06-04T06:08:06;2.47;;;1.77;;
8652;SDS011;4364;52.426;9.424;2023-06-04T06:10:33;3.70;;;1.90;;
8652;SDS011;4364;52.426;9.424;2023-06-04T06:13:00;2.03;;;1.80;;
8652;SDS011;4364;52.426;9.424;2023-06-04T06:15:28;1.90;;;1.60;;
8652;SDS011;4364;52.426;9.424;2023-06-04T06:17:55;3.63;;;2.10;;
8652;SDS011;4364;52.426;9.424;2023-06-04T06:20:22;3.93;;;1.97;;
8652;SDS011;4364;52.426;9.424;2023-06-04T06:22:50;3.67;;;2.93;;
8652;SDS011;4364;52.426;9.424;2023-06-04T06:25:19;5.87;;;3.07;;
8652;SDS011;4364;52.426;9.424;2023-06-04T06:27:55;2.47;;;2.03;;
8652;SDS011;4364;52.426;9.424;2023-06-04T06:30:24;2.57;;;1.80;;
8652;SDS011;4364;52.426;9.424;2023-06-04T06:32:51;2.20;;;1.70;;
8652;SDS011;4364;52.426;9.424;2023-06-04T06:35:21;2.93;;;1.80;;
8652;SDS011;4364;52.426;9.424;2023-06-04T06:37:48;3.43;;;2.00;;
8652;SDS011;4364;52.426;9.424;2023-06-04T06:40:14;1.87;;;1.60;;
8652;SDS011;4364;52.426;9.424;2023-06-04T06:42:41;2.47;;;1.80;;
8652;SDS011;4364;52.426;9.424;2023-06-04T06:45:08;4.10;;;1.60;;
8652;SDS011;4364;52.426;9.424;2023-06-04T06:47:35;2.23;;;1.70;;
8652;SDS011;4364;52.426;9.424;2023-06-04T06:50:01;4.23;;;2.00;;
8652;SDS011;4364;52.426;9.424;2023-06-04T06:52:28;2.20;;;1.73;;
8652;SDS011;4364;52.426;9.424;2023-06-04T06:54:58;2.60;;;1.80;;
8652;SDS011;4364;52.426;9.424;2023-06-04T06:57:24;4.67;;;1.93;;
8652;SDS011;4364;52.426;9.424;2023-06-04T06:59:51;3.27;;;1.80;;
8652;SDS011;4364;52.426;9.424;2023-06-04T07:02:20;2.23;;;1.70;;
8652;SDS011;4364;52.426;9.424;2023-06-04T07:04:47;3.10;;;1.77;;
8652;SDS011;4364;52.426;9.424;2023-06-04T07:07:13;2.77;;;1.90;;
8652;SDS011;4364;52.426;9.424;2023-06-04T07:09:44;2.10;;;1.50;;
8652;SDS011;4364;52.426;9.424;2023-06-04T07:12:10;2.43;;;1.80;;
8652;SDS011;4364;52.426;9.424;2023-06-04T07:14:37;1.63;;;1.53;;
8652;SDS011;4364;52.426;9.424;2023-06-04T07:17:03;4.20;;;1.90;;
8652;SDS011;4364;52.426;9.424;2023-06-04T07:19:30;2.20;;;1.73;;
8652;SDS011;4364;52.426;9.424;2023-06-04T07:21:57;2.03;;;1.80;;
8652;SDS011;4364;52.426;9.424;2023-06-04T07:24:23;3.13;;;1.80;;
8652;SDS011;4364;52.426;9.424;2023-06-04T07:26:50;2.23;;;1.77;;
8652;SDS011;4364;52.426;9.424;2023-06-04T07:29:16;3.00;;;1.60;;
8652;SDS011;4364;52.426;9.424;2023-06-04T07:31:43;2.93;;;1.63;;
8652;SDS011;4364;52.426;9.424;2023-06-04T07:34:10;2.33;;;1.73;;
8652;SDS011;4364;52.426;9.424;2023-06-04T07:36:36;2.30;;;1.70;;
8652;SDS011;4364;52.426;9.424;2023-06-04T07:39:03;2.87;;;1.47;;
8652;SDS011;4364;52.426;9.424;2023-06-04T07:41:32;3.47;;;2.20;;
8652;SDS011;4364;52.426;9.424;2023-06-04T07:43:59;3.50;;;1.73;;
8652;SDS011;4364;52.426;9.424;2023-06-04T07:46:26;3.57;;;1.60;;
8652;SDS011;4364;52.426;9.424;2023-06-04T07:48:53;4.20;;;1.93;;
8652;SDS011;4364;52.426;9.424;2023-06-04T07:51:19;2.60;;;1.47;;
8652;SDS011;4364;52.426;9.424;2023-06-04T07:53:46;3.87;;;1.97;;
8652;SDS011;4364;52.426;9.424;2023-06-04T07:56:12;2.50;;;1.70;;
8652;SDS011;4364;52.426;9.424;2023-06-04T07:58:39;2.57;;;1.70;;
8652;SDS011;4364;52.426;9.424;2023-06-04T08:01:06;2.57;;;1.37;;
8652;SDS011;4364;52.426;9.424;2023-06-04T08:03:33;5.77;;;1.97;;
8652;SDS011;4364;52.426;9.424;2023-06-04T08:06:00;2.17;;;1.70;;
8652;SDS011;4364;52.426;9.424;2023-06-04T08:08:30;1.90;;;1.70;;
8652;SDS011;4364;52.426;9.424;2023-06-04T08:10:57;2.07;;;1.57;;
8652;SDS011;4364;52.426;9.424;2023-06-04T08:13:24;4.37;;;2.30;;
8652;SDS011;4364;52.426;9.424;2023-06-04T08:15:50;2.53;;;1.90;;
8652;SDS011;4364;52.426;9.424;2023-06-04T08:18:17;2.67;;;1.97;;
8652;SDS011;4364;52.426;9.424;2023-06-04T08:20:43;4.67;;;2.80;;
8652;SDS011;4364;52.426;9.424;2023-06-04T08:23:10;2.73;;;1.90;;
8652;SDS011;4364;52.426;9.424;2023-06-04T08:25:36;5.83;;;2.53;;
8652;SDS011;4364;52.426;9.424;2023-06-04T08:28:03;2.77;;;1.80;;
8652;SDS011;4364;52.426;9.424;2023-06-04T08:30:30;2.33;;;1.70;;
8652;SDS011;4364;52.426;9.424;2023-06-04T08:32:56;3.10;;;2.20;;
8652;SDS011;4364;52.426;9.424;2023-06-04T08:35:23;2.43;;;1.43;;
8652;SDS011;4364;52.426;9.424;2023-06-04T08:37:49;5.33;;;2.50;;
8652;SDS011;4364;52.426;9.424;2023-06-04T08:40:16;2.57;;;1.40;;
8652;SDS011;4364;52.426;9.424;2023-06-04T08:42:43;1.50;;;1.30;;
8652;SDS011;4364;52.426;9.424;2023-06-04T08:45:12;3.30;;;1.87;;
8652;SDS011;4364;52.426;9.424;2023-06-04T08:47:40;1.77;;;1.37;;
8652;SDS011;4364;52.426;9.424;2023-06-04T08:50:11;2.00;;;1.80;;
8652;SDS011;4364;52.426;9.424;2023-06-04T08:52:40;1.83;;;1.50;;
8652;SDS011;4364;52.426;9.424;2023-06-04T08:55:08;4.20;;;1.80;;
8652;SDS011;4364;52.426;9.424;2023-06-04T08:57:38;1.53;;;1.37;;
8652;SDS011;4364;52.426;9.424;2023-06-04T09:00:06;2.07;;;1.40;;
8652;SDS011;4364;52.426;9.424;2023-06-04T09:02:35;1.40;;;1.23;;
8652;SDS011;4364;52.426;9.424;2023-06-04T09:05:04;2.17;;;1.33;;
8652;SDS011;4364;52.426;9.424;2023-06-04T09:07:36;2.60;;;1.60;;
8652;SDS011;4364;52.426;9.424;2023-06-04T09:10:06;1.40;;;1.30;;
8652;SDS011;4364;52.426;9.424;2023-06-04T09:12:42;1.43;;;1.33;;
8652;SDS011;4364;52.426;9.424;2023-06-04T09:15:10;2.00;;;1.40;;
8652;SDS011;4364;52.426;9.424;2023-06-04T09:17:37;1.63;;;1.40;;
8652;SDS011;4364;52.426;9.424;2023-06-04T09:20:04;3.60;;;1.60;;
8652;SDS011;4364;52.426;9.424;2023-06-04T09:22:35;1.50;;;1.30;;
8652;SDS011;4364;52.426;9.424;2023-06-04T09:25:06;2.10;;;1.57;;
8652;SDS011;4364;52.426;9.424;2023-06-04T09:27:38;1.97;;;1.40;;
8652;SDS011;4364;52.426;9.424;2023-06-04T09:30:06;4.27;;;1.50;;
8652;SDS011;4364;52.426;9.424;2023-06-04T09:32:37;1.50;;;1.30;;
8652;SDS011;4364;52.426;9.424;2023-06-04T09:35:11;2.10;;;1.40;;
8652;SDS011;4364;52.426;9.424;2023-06-04T09:37:39;1.77;;;1.23;;
8652;SDS011;4364;52.426;9.424;2023-06-04T09:40:08;2.90;;;1.50;;
8652;SDS011;4364;52.426;9.424;2023-06-04T09:42:42;1.43;;;1.30;;
8652;SDS011;4364;52.426;9.424;2023-06-04T09:45:10;2.43;;;1.30;;
8652;SDS011;4364;52.426;9.424;2023-06-04T09:47:38;3.17;;;1.43;;
8652;SDS011;4364;52.426;9.424;2023-06-04T09:50:10;1.83;;;1.40;;
8652;SDS011;4364;52.426;9.424;2023-06-04T09:52:38;2.03;;;1.50;;
8652;SDS011;4364;52.426;9.424;2023-06-04T09:55:15;2.67;;;1.27;;
8652;SDS011;4364;52.426;9.424;2023-06-04T09:57:48;2.83;;;1.40;;
8652;SDS011;4364;52.426;9.424;2023-06-04T10:00:19;2.70;;;1.47;;
8652;SDS011;4364;52.426;9.424;2023-06-04T10:02:47;1.90;;;1.40;;
8652;SDS011;4364;52.426;9.424;2023-06-04T10:05:15;1.57;;;1.30;;
8652;SDS011;4364;52.426;9.424;2023-06-04T10:07:43;3.03;;;1.37;;
8652;SDS011;4364;52.426;9.424;2023-06-04T10:10:11;2.50;;;1.40;;
8652;SDS011;4364;52.426;9.424;2023-06-04T10:12:46;1.60;;;1.50;;
8652;SDS011;4364;52.426;9.424;2023-06-04T10:15:18;2.17;;;1.30;;
8652;SDS011;4364;52.426;9.424;2023-06-04T10:17:46;2.73;;;1.50;;
8652;SDS011;4364;52.426;9.424;2023-06-04T10:20:14;3.50;;;1.47;;
8652;SDS011;4364;52.426;9.424;2023-06-04T10:22:41;1.80;;;1.60;;
8652;SDS011;4364;52.426;9.424;2023-06-04T10:25:08;2.47;;;1.60;;
8652;SDS011;4364;52.426;9.424;2023-06-04T10:27:36;3.63;;;1.70;;
8652;SDS011;4364;52.426;9.424;2023-06-04T10:30:04;2.43;;;1.60;;
8652;SDS011;4364;52.426;9.424;2023-06-04T10:32:31;1.73;;;1.33;;
8652;SDS011;4364;52.426;9.424;2023-06-04T10:34:57;2.43;;;1.30;;
8652;SDS011;4364;52.426;9.424;2023-06-04T10:37:25;1.77;;;1.50;;
8652;SDS011;4364;52.426;9.424;2023-06-04T10:39:52;1.93;;;1.37;;
8652;SDS011;4364;52.426;9.424;2023-06-04T10:42:21;2.60;;;1.30;;
8652;SDS011;4364;52.426;9.424;2023-06-04T10:44:49;2.07;;;1.40;;
8652;SDS011;4364;52.426;9.424;2023-06-04T10:47:22;2.53;;;1.33;;
8652;SDS011;4364;52.426;9.424;2023-06-04T10:49:53;2.33;;;1.30;;
8652;SDS011;4364;52.426;9.424;2023-06-04T10:52:21;1.57;;;1.30;;
8652;SDS011;4364;52.426;9.424;2023-06-04T10:54:48;1.57;;;1.40;;
8652;SDS011;4364;52.426;9.424;2023-06-04T10:57:15;2.73;;;1.60;;
8652;SDS011;4364;52.426;9.424;2023-06-04T10:59:53;2.27;;;1.40;;
8652;SDS011;4364;52.426;9.424;2023-06-04T11:02:23;2.93;;;1.50;;
8652;SDS011;4364;52.426;9.424;2023-06-04T11:05:03;2.00;;;1.53;;
8652;SDS011;4364;52.426;9.424;2023-06-04T11:07:42;2.10;;;1.40;;
8652;SDS011;4364;52.426;9.424;2023-06-04T11:10:10;1.93;;;1.60;;
8652;SDS011;4364;52.426;9.424;2023-06-04T11:12:42;2.60;;;1.40;;
8652;SDS011;4364;52.426;9.424;2023-06-04T11:15:08;1.93;;;1.57;;
8652;SDS011;4364;52.426;9.424;2023-06-04T11:17:35;2.47;;;1.50;;
8652;SDS011;4364;52.426;9.424;2023-06-04T11:20:02;2.47;;;1.40;;
8652;SDS011;4364;52.426;9.424;2023-06-04T11:22:31;2.10;;;1.60;;
8652;SDS011;4364;52.426;9.424;2023-06-04T11:24:57;1.73;;;1.37;;
8652;SDS011;4364;52.426;9.424;2023-06-04T11:27:27;1.90;;;1.63;;
8652;SDS011;4364;52.426;9.424;2023-06-04T11:30:00;2.37;;;1.70;;
8652;SDS011;4364;52.426;9.424;2023-06-04T11:32:28;1.80;;;1.40;;
8652;SDS011;4364;52.426;9.424;2023-06-04T11:35:04;6.85;;;1.60;;
8652;SDS011;4364;52.426;9.424;2023-06-04T11:37:33;1.90;;;1.50;;
8652;SDS011;4364;52.426;9.424;2023-06-04T11:40:00;1.53;;;1.43;;
8652;SDS011;4364;52.426;9.424;2023-06-04T11:42:27;2.73;;;1.47;;
8652;SDS011;4364;52.426;9.424;2023-06-04T11:44:55;2.93;;;1.77;;
8652;SDS011;4364;52.426;9.424;2023-06-04T11:47:23;2.80;;;1.60;;
8652;SDS011;4364;52.426;9.424;2023-06-04T11:49:56;2.57;;;1.60;;
8652;SDS011;4364;52.426;9.424;2023-06-04T11:52:23;3.27;;;1.60;;
8652;SDS011;4364;52.426;9.424;2023-06-04T11:54:49;2.40;;;1.60;;
8652;SDS011;4364;52.426;9.424;2023-06-04T11:57:16;2.57;;;1.50;;
8652;SDS011;4364;52.426;9.424;2023-06-04T11:59:43;3.43;;;1.50;;
8652;SDS011;4364;52.426;9.424;2023-06-04T12:02:10;2.20;;;1.60;;
8652;SDS011;4364;52.426;9.424;2023-06-04T12:04:37;2.60;;;1.73;;
8652;SDS011;4364;52.426;9.424;2023-06-04T12:07:04;3.90;;;1.77;;
8652;SDS011;4364;52.426;9.424;2023-06-04T12:09:32;4.00;;;1.73;;
8652;SDS011;4364;52.426;9.424;2023-06-04T12:12:05;2.25;;;1.58;;
8652;SDS011;4364;52.426;9.424;2023-06-04T12:14:33;3.22;;;1.60;;
8652;SDS011;4364;52.426;9.424;2023-06-04T12:17:06;1.67;;;1.50;;
8652;SDS011;4364;52.426;9.424;2023-06-04T12:19:45;1.97;;;1.77;;
8652;SDS011;4364;52.426;9.424;2023-06-04T12:22:14;2.45;;;1.40;;
8652;SDS011;4364;52.426;9.424;2023-06-04T12:24:46;2.00;;;1.58;;
8652;SDS011;4364;52.426;9.424;2023-06-04T12:27:15;1.60;;;1.50;;
8652;SDS011;4364;52.426;9.424;2023-06-04T12:29:41;2.85;;;1.58;;
8652;SDS011;4364;52.426;9.424;2023-06-04T12:32:08;2.72;;;1.67;;
8652;SDS011;4364;52.426;9.424;2023-06-04T12:34:39;3.67;;;1.90;;
8652;SDS011;4364;52.426;9.424;2023-06-04T12:37:07;2.53;;;1.60;;
8652;SDS011;4364;52.426;9.424;2023-06-04T12:39:34;1.75;;;1.60;;
8652;SDS011;4364;52.426;9.424;2023-06-04T12:42:05;2.07;;;1.60;;
8652;SDS011;4364;52.426;9.424;2023-06-04T12:44:32;3.20;;;1.85;;
8652;SDS011;4364;52.426;9.424;2023-06-04T12:47:01;2.63;;;1.80;;
8652;SDS011;4364;52.426;9.424;2023-06-04T12:49:28;3.03;;;2.07;;
8652;SDS011;4364;52.426;9.424;2023-06-04T12:51:55;2.75;;;1.60;;
8652;SDS011;4364;52.426;9.424;2023-06-04T12:54:22;2.65;;;1.80;;
8652;SDS011;4364;52.426;9.424;2023-06-04T12:56:48;3.55;;;1.60;;
8652;SDS011;4364;52.426;9.424;2023-06-04T12:59:15;2.28;;;1.55;;
8652;SDS011;4364;52.426;9.424;2023-06-04T13:01:42;4.20;;;1.80;;
8652;SDS011;4364;52.426;9.424;2023-06-04T13:04:09;2.10;;;1.60;;
8652;SDS011;4364;52.426;9.424;2023-06-04T13:06:36;3.20;;;1.63;;
8652;SDS011;4364;52.426;9.424;2023-06-04T13:09:04;2.17;;;1.60;;
8652;SDS011;4364;52.426;9.424;2023-06-04T13:11:43;2.65;;;1.80;;
8652;SDS011;4364;52.426;9.424;2023-06-04T13:14:10;2.05;;;1.50;;
8652;SDS011;4364;52.426;9.424;2023-06-04T13:16:37;4.88;;;1.98;;
8652;SDS011;4364;52.426;9.424;2023-06-04T13:19:05;3.13;;;1.55;;
8652;SDS011;4364;52.426;9.424;2023-06-04T13:21:33;2.95;;;1.73;;
8652;SDS011;4364;52.426;9.424;2023-06-04T13:23:59;3.72;;;1.63;;
8652;SDS011;4364;52.426;9.424;2023-06-04T13:26:26;2.17;;;1.63;;
8652;SDS011;4364;52.426;9.424;2023-06-04T13:28:52;2.92;;;1.88;;
8652;SDS011;4364;52.426;9.424;2023-06-04T13:31:20;5.78;;;2.03;;
8652;SDS011;4364;52.426;9.424;2023-06-04T13:33:46;1.92;;;1.55;;
8652;SDS011;4364;52.426;9.424;2023-06-04T13:36:13;3.28;;;1.80;;
8652;SDS011;4364;52.426;9.424;2023-06-04T13:38:39;3.60;;;1.70;;
8652;SDS011;4364;52.426;9.424;2023-06-04T13:41:09;2.95;;;1.70;;
8652;SDS011;4364;52.426;9.424;2023-06-04T13:43:37;2.85;;;1.83;;
8652;SDS011;4364;52.426;9.424;2023-06-04T13:46:05;3.00;;;1.70;;
8652;SDS011;4364;52.426;9.424;2023-06-04T13:48:31;2.97;;;1.92;;
8652;SDS011;4364;52.426;9.424;2023-06-04T13:50:58;2.72;;;1.80;;
8652;SDS011;4364;52.426;9.424;2023-06-04T13:53:24;2.70;;;1.67;;
8652;SDS011;4364;52.426;9.424;2023-06-04T13:55:51;2.13;;;1.92;;
8652;SDS011;4364;52.426;9.424;2023-06-04T13:58:24;2.97;;;1.63;;
8652;SDS011;4364;52.426;9.424;2023-06-04T14:00:53;2.83;;;1.67;;
8652;SDS011;4364;52.426;9.424;2023-06-04T14:03:21;2.75;;;1.77;;
8652;SDS011;4364;52.426;9.424;2023-06-04T14:05:48;2.38;;;1.85;;
8652;SDS011;4364;52.426;9.424;2023-06-04T14:08:14;2.38;;;1.80;;
8652;SDS011;4364;52.426;9.424;2023-06-04T14:10:41;2.25;;;1.70;;
8652;SDS011;4364;52.426;9.424;2023-06-04T14:13:08;3.50;;;1.90;;
8652;SDS011;4364;52.426;9.424;2023-06-04T14:15:35;2.92;;;1.58;;
8652;SDS011;4364;52.426;9.424;2023-06-04T14:18:01;1.70;;;1.55;;
8652;SDS011;4364;52.426;9.424;2023-06-04T14:20:28;2.92;;;1.52;;
8652;SDS011;4364;52.426;9.424;2023-06-04T14:22:55;3.05;;;1.90;;
8652;SDS011;4364;52.426;9.424;2023-06-04T14:25:21;2.28;;;1.77;;
8652;SDS011;4364;52.426;9.424;2023-06-04T14:27:48;1.92;;;1.63;;
8652;SDS011;4364;52.426;9.424;2023-06-04T14:30:14;2.50;;;1.90;;
8652;SDS011;4364;52.426;9.424;2023-06-04T14:32:41;2.60;;;1.70;;
8652;SDS011;4364;52.426;9.424;2023-06-04T14:35:08;2.15;;;1.80;;
8652;SDS011;4364;52.426;9.424;2023-06-04T14:37:35;2.72;;;1.85;;
8652;SDS011;4364;52.426;9.424;2023-06-04T14:40:01;1.67;;;1.58;;
8652;SDS011;4364;52.426;9.424;2023-06-04T14:42:28;2.65;;;1.60;;
8652;SDS011;4364;52.426;9.424;2023-06-04T14:44:54;2.83;;;1.80;;
8652;SDS011;4364;52.426;9.424;2023-06-04T14:47:21;1.92;;;1.77;;
8652;SDS011;4364;52.426;9.424;2023-06-04T14:49:48;2.80;;;1.75;;
8652;SDS011;4364;52.426;9.424;2023-06-04T14:52:14;2.45;;;1.63;;
8652;SDS011;4364;52.426;9.424;2023-06-04T14:54:42;2.38;;;1.70;;
8652;SDS011;4364;52.426;9.424;2023-06-04T14:57:09;2.55;;;1.90;;
8652;SDS011;4364;52.426;9.424;2023-06-04T14:59:35;2.45;;;1.60;;
8652;SDS011;4364;52.426;9.424;2023-06-04T15:02:03;2.42;;;1.80;;
8652;SDS011;4364;52.426;9.424;2023-06-04T15:04:29;2.72;;;1.50;;
8652;SDS011;4364;52.426;9.424;2023-06-04T15:06:56;1.63;;;1.52;;
8652;SDS011;4364;52.426;9.424;2023-06-04T15:09:23;4.43;;;1.80;;
8652;SDS011;4364;52.426;9.424;2023-06-04T15:11:50;3.35;;;2.20;;
8652;SDS011;4364;52.426;9.424;2023-06-04T15:14:16;2.35;;;1.85;;
8652;SDS011;4364;52.426;9.424;2023-06-04T15:16:43;1.95;;;1.75;;
8652;SDS011;4364;52.426;9.424;2023-06-04T15:19:10;4.03;;;1.60;;
8652;SDS011;4364;52.426;9.424;2023-06-04T15:21:36;3.70;;;2.33;;